createdAt,value
2022-10-07T00:00:11.060Z,81.68
2022-10-07T00:01:11.156Z,81.44
2022-10-07T00:02:11.098Z,81.48
2022-10-07T00:03:11.058Z,81.76
2022-10-07T00:04:11.062Z,81.76
2022-10-07T00:05:11.063Z,81.83
2022-10-07T00:06:17.067Z,81.65
2022-10-07T00:07:11.070Z,81.74
2022-10-07T00:08:11.060Z,81.84
2022-10-07T00:09:11.063Z,81.48
2022-10-07T00:10:11.068Z,81.46
2022-10-07T00:11:14.064Z,81.16
2022-10-07T00:12:11.060Z,81.12
2022-10-07T00:13:11.061Z,81.02
2022-10-07T00:14:11.062Z,81.28
2022-10-07T00:15:11.062Z,81.01
2022-10-07T00:16:11.156Z,81.21
2022-10-07T00:17:11.062Z,81.28
2022-10-07T00:18:11.062Z,81.57
2022-10-07T00:19:11.062Z,81.48
2022-10-07T00:20:11.065Z,81.30
2022-10-07T00:21:11.054Z,81.38
2022-10-07T00:22:11.057Z,81.33
2022-10-07T00:23:11.062Z,81.35
2022-10-07T00:24:11.058Z,81.17
2022-10-07T00:25:11.055Z,81.31
2022-10-07T00:26:12.060Z,81.27
2022-10-07T00:27:11.057Z,81.20
2022-10-07T00:28:11.100Z,81.16
2022-10-07T00:29:11.056Z,81.22
2022-10-07T00:30:11.063Z,81.37
2022-10-07T00:31:16.138Z,81.28
2022-10-07T00:32:11.058Z,81.43
2022-10-07T00:33:11.063Z,81.36
2022-10-07T00:34:11.059Z,81.27
2022-10-07T00:35:11.059Z,81.14
2022-10-07T00:36:17.065Z,81.05
2022-10-07T00:37:11.058Z,81.11
2022-10-07T00:38:11.056Z,81.01
2022-10-07T00:39:11.058Z,80.94
2022-10-07T00:40:13.065Z,81.12
2022-10-07T00:41:15.057Z,80.99
2022-10-07T00:42:13.055Z,81.02
2022-10-07T00:43:19.063Z,81.03
2022-10-07T00:44:19.071Z,81.02
2022-10-07T00:45:15.060Z,80.93
2022-10-07T00:46:18.156Z,81.16
2022-10-07T00:47:21.059Z,81.09
2022-10-07T00:48:11.061Z,81.15
2022-10-07T00:49:15.063Z,81.00
2022-10-07T00:50:18.063Z,81.02
2022-10-07T00:51:11.060Z,80.99
2022-10-07T00:52:11.061Z,80.93
2022-10-07T00:53:11.058Z,80.93
2022-10-07T00:54:12.061Z,80.89
2022-10-07T00:55:13.061Z,80.98
2022-10-07T00:56:11.061Z,80.89
2022-10-07T00:57:11.063Z,80.91
2022-10-07T00:58:13.071Z,80.88
2022-10-07T00:59:11.061Z,81.18
2022-10-07T01:00:11.061Z,81.06
2022-10-07T01:01:11.130Z,81.06
2022-10-07T01:02:11.104Z,81.10
2022-10-07T01:03:11.058Z,81.17
2022-10-07T01:04:11.064Z,81.22
2022-10-07T01:05:11.060Z,81.30
2022-10-07T01:06:11.057Z,81.28
2022-10-07T01:07:11.064Z,81.21
2022-10-07T01:08:11.061Z,81.17
2022-10-07T01:09:11.058Z,81.11
2022-10-07T01:10:11.060Z,81.11
2022-10-07T01:11:23.062Z,81.19
2022-10-07T01:12:21.060Z,81.21
2022-10-07T01:13:19.059Z,81.26
2022-10-07T01:14:20.061Z,81.25
2022-10-07T01:15:23.071Z,81.31
2022-10-07T01:16:21.121Z,81.44
2022-10-07T01:17:21.064Z,81.29
2022-10-07T01:18:21.060Z,81.17
2022-10-07T01:19:19.061Z,81.16
2022-10-07T01:20:18.073Z,81.25
2022-10-07T01:21:18.065Z,81.27
2022-10-07T01:22:19.058Z,81.66
2022-10-07T01:23:21.057Z,81.70
2022-10-07T01:24:19.053Z,81.68
2022-10-07T01:25:19.060Z,81.64
2022-10-07T01:26:19.067Z,81.68
2022-10-07T01:27:18.058Z,81.69
2022-10-07T01:28:17.086Z,81.60
2022-10-07T01:29:17.059Z,81.68
2022-10-07T01:30:11.060Z,81.87
2022-10-07T01:31:12.160Z,82.05
2022-10-07T01:32:18.055Z,81.93
2022-10-07T01:33:15.058Z,81.83
2022-10-07T01:34:12.068Z,81.83
2022-10-07T01:35:17.058Z,81.93
2022-10-07T01:36:14.062Z,82.07
2022-10-07T01:37:12.066Z,82.25
2022-10-07T01:38:12.067Z,82.45
2022-10-07T01:39:14.056Z,82.39
2022-10-07T01:40:14.061Z,82.22
2022-10-07T01:41:17.061Z,82.05
2022-10-07T01:42:11.058Z,82.12
2022-10-07T01:43:11.063Z,82.23
2022-10-07T01:44:11.069Z,82.08
2022-10-07T01:45:13.071Z,82.03
2022-10-07T01:46:13.133Z,82.12
2022-10-07T01:47:11.064Z,82.01
2022-10-07T01:48:11.062Z,82.09
2022-10-07T01:49:11.060Z,82.00
2022-10-07T01:50:15.064Z,81.90
2022-10-07T01:51:11.065Z,81.75
2022-10-07T01:52:19.084Z,81.74
2022-10-07T01:53:19.063Z,81.72
2022-10-07T01:54:21.065Z,81.66
2022-10-07T01:55:19.069Z,81.61
2022-10-07T01:56:19.062Z,81.57
2022-10-07T01:57:19.063Z,81.44
2022-10-07T01:58:21.063Z,81.51
2022-10-07T01:59:19.066Z,81.54
2022-10-07T02:00:11.069Z,81.49
2022-10-07T02:01:22.141Z,81.39
2022-10-07T02:02:19.061Z,81.68
2022-10-07T02:03:19.083Z,81.88
2022-10-07T02:04:19.065Z,81.73
2022-10-07T02:05:19.073Z,82.09
2022-10-07T02:06:23.063Z,82.38
2022-10-07T02:07:19.066Z,82.12
2022-10-07T02:08:19.073Z,82.04
2022-10-07T02:09:21.068Z,82.08
2022-10-07T02:10:19.076Z,82.28
2022-10-07T02:11:14.065Z,82.37
2022-10-07T02:12:19.063Z,82.40
2022-10-07T02:13:21.066Z,82.49
2022-10-07T02:14:14.068Z,82.69
2022-10-07T02:15:19.066Z,82.97
2022-10-07T02:16:21.106Z,82.93
2022-10-07T02:17:17.064Z,83.10
2022-10-07T02:18:12.068Z,83.47
2022-10-07T02:19:17.077Z,83.38
2022-10-07T02:20:13.067Z,83.40
2022-10-07T02:21:11.081Z,83.91
2022-10-07T02:22:11.059Z,83.79
2022-10-07T02:23:12.066Z,83.75
2022-10-07T02:24:12.059Z,83.58
2022-10-07T02:25:12.061Z,83.77
2022-10-07T02:26:13.060Z,84.26
2022-10-07T02:27:13.060Z,84.08
2022-10-07T02:28:12.128Z,84.01
2022-10-07T02:29:12.061Z,83.95
2022-10-07T02:30:18.060Z,83.82
2022-10-07T02:31:11.117Z,84.11
2022-10-07T02:32:15.060Z,84.09
2022-10-07T02:33:11.062Z,84.13
2022-10-07T02:34:11.059Z,84.24
2022-10-07T02:35:23.061Z,84.24
2022-10-07T02:36:15.060Z,84.09
2022-10-07T02:37:18.072Z,84.11
2022-10-07T02:38:13.061Z,84.34
2022-10-07T02:39:11.060Z,84.18
2022-10-07T02:40:12.507Z,84.27
2022-10-07T02:41:21.061Z,84.18
2022-10-07T02:42:19.062Z,84.10
2022-10-07T02:43:19.058Z,84.29
2022-10-07T02:44:19.061Z,84.42
2022-10-07T02:45:25.843Z,84.29
2022-10-07T02:46:21.154Z,84.28
2022-10-07T02:47:19.063Z,84.63
2022-10-07T02:48:21.061Z,84.62
2022-10-07T02:49:13.069Z,84.61
2022-10-07T02:50:12.072Z,84.44
2022-10-07T02:51:16.247Z,84.69
2022-10-07T02:52:15.358Z,84.82
2022-10-07T02:53:11.063Z,84.70
2022-10-07T02:54:11.070Z,84.67
2022-10-07T02:55:12.065Z,84.59
2022-10-07T02:56:11.061Z,84.57
2022-10-07T02:57:12.065Z,84.89
2022-10-07T02:58:11.083Z,85.08
2022-10-07T02:59:12.070Z,85.28
2022-10-07T03:00:11.510Z,85.29
2022-10-07T03:01:11.122Z,85.42
2022-10-07T03:02:13.066Z,85.28
2022-10-07T03:03:11.120Z,85.16
2022-10-07T03:04:11.065Z,85.18
2022-10-07T03:05:11.065Z,85.20
2022-10-07T03:06:11.063Z,85.14
2022-10-07T03:07:11.063Z,85.12
2022-10-07T03:08:11.073Z,85.15
2022-10-07T03:09:11.061Z,85.41
2022-10-07T03:10:11.068Z,85.33
2022-10-07T03:11:11.071Z,85.31
2022-10-07T03:12:12.064Z,85.19
2022-10-07T03:13:11.066Z,84.95
2022-10-07T03:14:11.064Z,85.13
2022-10-07T03:15:11.066Z,85.28
2022-10-07T03:16:11.109Z,85.16
2022-10-07T03:17:11.065Z,85.11
2022-10-07T03:18:11.073Z,85.01
2022-10-07T03:19:11.065Z,85.06
2022-10-07T03:20:11.068Z,84.89
2022-10-07T03:21:11.066Z,85.18
2022-10-07T03:22:11.058Z,85.09
2022-10-07T03:23:11.063Z,84.83
2022-10-07T03:24:11.069Z,84.88
2022-10-07T03:25:13.064Z,84.90
2022-10-07T03:26:11.061Z,84.74
2022-10-07T03:27:11.062Z,84.94
2022-10-07T03:28:11.111Z,85.08
2022-10-07T03:29:12.060Z,84.97
2022-10-07T03:30:11.060Z,84.79
2022-10-07T03:31:11.099Z,84.73
2022-10-07T03:32:11.061Z,84.65
2022-10-07T03:33:11.067Z,84.50
2022-10-07T03:34:11.072Z,84.61
2022-10-07T03:35:11.063Z,84.53
2022-10-07T03:36:11.059Z,84.66
2022-10-07T03:37:11.065Z,84.84
2022-10-07T03:38:12.062Z,84.71
2022-10-07T03:39:11.061Z,84.86
2022-10-07T03:40:11.063Z,84.96
2022-10-07T03:41:11.070Z,84.79
2022-10-07T03:42:11.059Z,84.65
2022-10-07T03:43:11.064Z,84.77
2022-10-07T03:44:11.069Z,84.85
2022-10-07T03:45:11.064Z,84.69
2022-10-07T03:46:11.081Z,84.63
2022-10-07T03:47:12.061Z,84.87
2022-10-07T03:48:11.066Z,85.05
2022-10-07T03:49:11.065Z,84.97
2022-10-07T03:50:11.066Z,85.04
2022-10-07T03:51:11.072Z,85.00
2022-10-07T03:52:11.064Z,84.79
2022-10-07T03:53:11.059Z,84.75
2022-10-07T03:54:11.066Z,84.78
2022-10-07T03:55:11.064Z,85.09
2022-10-07T03:56:11.063Z,85.27
2022-10-07T03:57:15.064Z,85.28
2022-10-07T03:58:11.070Z,85.48
2022-10-07T03:59:11.064Z,85.36
2022-10-07T04:00:11.060Z,85.40
2022-10-07T04:01:11.070Z,85.20
2022-10-07T04:02:11.103Z,84.99
2022-10-07T04:03:11.121Z,85.05
2022-10-07T04:04:11.064Z,85.10
2022-10-07T04:05:11.064Z,84.94
2022-10-07T04:06:11.064Z,85.11
2022-10-07T04:07:11.064Z,85.12
2022-10-07T04:08:12.068Z,85.04
2022-10-07T04:09:12.063Z,85.13
2022-10-07T04:10:11.066Z,85.24
2022-10-07T04:11:11.072Z,85.29
2022-10-07T04:12:11.065Z,85.40
2022-10-07T04:13:11.069Z,85.52
2022-10-07T04:14:11.074Z,85.48
2022-10-07T04:15:11.066Z,85.32
2022-10-07T04:16:11.146Z,85.11
2022-10-07T04:17:11.066Z,84.84
2022-10-07T04:18:11.066Z,84.73
2022-10-07T04:19:11.062Z,84.72
2022-10-07T04:20:11.065Z,84.58
2022-10-07T04:21:11.061Z,84.47
2022-10-07T04:22:11.058Z,84.39
2022-10-07T04:23:11.059Z,84.57
2022-10-07T04:24:11.067Z,84.77
2022-10-07T04:25:15.058Z,84.95
2022-10-07T04:26:11.055Z,84.88
2022-10-07T04:27:23.428Z,84.70
2022-10-07T04:28:20.147Z,84.62
2022-10-07T04:29:11.062Z,84.51
2022-10-07T04:30:11.057Z,84.44
2022-10-07T04:31:11.099Z,84.76
2022-10-07T04:32:11.066Z,84.83
2022-10-07T04:33:11.058Z,84.86
2022-10-07T04:34:11.066Z,84.89
2022-10-07T04:35:11.070Z,84.90
2022-10-07T04:36:11.059Z,84.76
2022-10-07T04:37:11.063Z,84.71
2022-10-07T04:38:11.067Z,85.05
2022-10-07T04:39:11.062Z,85.29
2022-10-07T04:40:11.058Z,85.31
2022-10-07T04:41:11.065Z,85.24
2022-10-07T04:42:11.062Z,85.18
2022-10-07T04:43:18.058Z,84.96
2022-10-07T04:44:11.063Z,84.88
2022-10-07T04:45:11.068Z,84.78
2022-10-07T04:46:11.063Z,84.83
2022-10-07T04:47:11.167Z,84.94
2022-10-07T04:48:11.070Z,85.07
2022-10-07T04:49:11.062Z,84.96
2022-10-07T04:50:11.058Z,85.05
2022-10-07T04:51:11.064Z,85.15
2022-10-07T04:52:11.064Z,85.35
2022-10-07T04:53:11.062Z,85.44
2022-10-07T04:54:11.062Z,85.29
2022-10-07T04:55:11.065Z,85.24
2022-10-07T04:56:11.072Z,85.26
2022-10-07T04:57:11.061Z,85.07
2022-10-07T04:58:11.071Z,85.13
2022-10-07T04:59:11.061Z,85.08
2022-10-07T05:00:11.064Z,85.20
2022-10-07T05:01:11.158Z,85.44
2022-10-07T05:02:11.110Z,85.60
2022-10-07T05:03:11.065Z,85.58
2022-10-07T05:04:11.072Z,85.77
2022-10-07T05:05:11.065Z,85.81
2022-10-07T05:06:11.061Z,85.71
2022-10-07T05:07:11.068Z,85.43
2022-10-07T05:08:11.066Z,85.47
2022-10-07T05:09:11.060Z,85.57
2022-10-07T05:10:11.068Z,85.50
2022-10-07T05:11:11.065Z,85.38
2022-10-07T05:12:11.065Z,85.76
2022-10-07T05:13:11.064Z,86.01
2022-10-07T05:14:11.066Z,86.08
2022-10-07T05:15:11.065Z,85.95
2022-10-07T05:16:11.140Z,85.78
2022-10-07T05:17:11.067Z,85.86
2022-10-07T05:18:11.063Z,85.84
2022-10-07T05:19:11.066Z,85.86
2022-10-07T05:20:11.072Z,85.70
2022-10-07T05:21:11.058Z,85.73
2022-10-07T05:22:11.060Z,85.98
2022-10-07T05:23:11.065Z,85.84
2022-10-07T05:24:11.058Z,85.67
2022-10-07T05:25:11.054Z,85.76
2022-10-07T05:26:11.076Z,85.75
2022-10-07T05:27:11.061Z,85.83
2022-10-07T05:28:14.123Z,85.55
2022-10-07T05:29:11.060Z,85.65
2022-10-07T05:30:11.058Z,85.63
2022-10-07T05:31:13.165Z,85.52
2022-10-07T05:32:11.105Z,85.49
2022-10-07T05:33:11.061Z,85.55
2022-10-07T05:34:11.059Z,85.74
2022-10-07T05:35:11.061Z,85.75
2022-10-07T05:36:11.062Z,85.73
2022-10-07T05:37:11.058Z,85.69
2022-10-07T05:38:11.060Z,85.61
2022-10-07T05:39:12.067Z,85.85
2022-10-07T05:40:11.060Z,85.83
2022-10-07T05:41:11.056Z,85.98
2022-10-07T05:42:11.062Z,86.48
2022-10-07T05:43:11.060Z,86.35
2022-10-07T05:44:11.057Z,86.26
2022-10-07T05:45:11.062Z,86.20
2022-10-07T05:46:12.102Z,86.18
2022-10-07T05:47:11.062Z,86.61
2022-10-07T05:48:11.061Z,86.51
2022-10-07T05:49:11.061Z,86.34
2022-10-07T05:50:11.059Z,86.40
2022-10-07T05:51:11.069Z,86.54
2022-10-07T05:52:11.068Z,86.37
2022-10-07T05:53:11.063Z,86.49
2022-10-07T05:54:11.063Z,86.57
2022-10-07T05:55:11.069Z,86.78
2022-10-07T05:56:11.063Z,86.67
2022-10-07T05:57:11.057Z,86.74
2022-10-07T05:58:11.065Z,86.99
2022-10-07T05:59:11.062Z,87.02
2022-10-07T06:00:11.061Z,86.81
2022-10-07T06:01:17.064Z,87.00
2022-10-07T06:02:15.246Z,87.10
2022-10-07T06:03:11.224Z,86.93
2022-10-07T06:04:11.058Z,86.94
2022-10-07T06:05:11.068Z,87.07
2022-10-07T06:06:11.062Z,86.88
2022-10-07T06:07:11.062Z,86.91
2022-10-07T06:08:11.099Z,86.79
2022-10-07T06:10:15.064Z,87.03
2022-10-07T06:11:15.066Z,87.26
2022-10-07T06:12:15.063Z,87.31
2022-10-07T06:13:13.072Z,87.15
2022-10-07T06:14:11.065Z,87.14
2022-10-07T06:15:11.063Z,87.07
2022-10-07T06:16:11.103Z,87.23
2022-10-07T06:17:11.065Z,87.44
2022-10-07T06:18:11.065Z,87.52
2022-10-07T06:19:15.073Z,87.45
2022-10-07T06:20:11.079Z,87.38
2022-10-07T06:21:11.061Z,87.75
2022-10-07T06:22:11.054Z,87.78
2022-10-07T06:23:11.061Z,87.48
2022-10-07T06:24:11.059Z,87.42
2022-10-07T06:25:11.060Z,87.55
2022-10-07T06:26:11.060Z,87.45
2022-10-07T06:27:11.058Z,87.64
2022-10-07T06:28:11.135Z,88.01
2022-10-07T06:29:11.059Z,87.83
2022-10-07T06:30:11.065Z,87.64
2022-10-07T06:31:14.164Z,87.59
2022-10-07T06:32:11.055Z,87.73
2022-10-07T06:33:11.060Z,87.77
2022-10-07T06:34:11.058Z,87.58
2022-10-07T06:35:11.059Z,87.76
2022-10-07T06:36:15.059Z,87.76
2022-10-07T06:37:11.066Z,87.68
2022-10-07T06:38:11.058Z,87.71
2022-10-07T06:39:11.062Z,87.71
2022-10-07T06:40:11.068Z,87.68
2022-10-07T06:41:11.060Z,87.76
2022-10-07T06:42:11.063Z,87.73
2022-10-07T06:43:11.062Z,87.88
2022-10-07T06:44:11.062Z,87.73
2022-10-07T06:45:11.058Z,87.67
2022-10-07T06:46:15.131Z,87.81
2022-10-07T06:47:12.101Z,87.62
2022-10-07T06:48:11.060Z,88.19
2022-10-07T06:49:11.061Z,88.02
2022-10-07T06:50:11.065Z,87.83
2022-10-07T06:51:13.059Z,87.72
2022-10-07T06:52:11.062Z,87.89
2022-10-07T06:53:11.071Z,87.95
2022-10-07T06:54:11.059Z,87.84
2022-10-07T06:55:11.063Z,88.03
2022-10-07T06:56:11.062Z,88.12
2022-10-07T06:57:26.323Z,87.81
2022-10-07T06:58:13.742Z,87.73
2022-10-07T06:59:11.062Z,87.71
2022-10-07T07:00:11.062Z,87.77
2022-10-07T07:01:11.140Z,87.76
2022-10-07T07:02:11.144Z,87.98
2022-10-07T07:03:11.070Z,88.09
2022-10-07T07:04:11.061Z,88.01
2022-10-07T07:05:14.088Z,88.17
2022-10-07T07:06:11.127Z,88.26
2022-10-07T07:07:11.062Z,88.08
2022-10-07T07:08:11.062Z,88.04
2022-10-07T07:09:11.064Z,87.87
2022-10-07T07:10:11.068Z,87.79
2022-10-07T07:11:15.063Z,87.67
2022-10-07T07:12:11.064Z,87.60
2022-10-07T07:13:11.071Z,87.72
2022-10-07T07:14:11.065Z,87.93
2022-10-07T07:15:11.066Z,87.94
2022-10-07T07:16:11.073Z,87.87
2022-10-07T07:17:11.178Z,87.90
2022-10-07T07:18:11.060Z,87.86
2022-10-07T07:19:12.065Z,87.96
2022-10-07T07:20:11.080Z,87.90
2022-10-07T07:21:11.056Z,87.75
2022-10-07T07:22:11.059Z,87.71
2022-10-07T07:23:11.069Z,87.68
2022-10-07T07:24:11.056Z,87.49
2022-10-07T07:25:11.060Z,87.39
2022-10-07T07:26:11.068Z,87.25
2022-10-07T07:27:11.060Z,87.34
2022-10-07T07:28:11.141Z,86.96
2022-10-07T07:29:13.067Z,86.99
2022-10-07T07:30:11.061Z,87.02
2022-10-07T07:31:13.091Z,86.90
2022-10-07T07:32:11.062Z,86.79
2022-10-07T07:33:11.060Z,86.63
2022-10-07T07:34:11.056Z,86.49
2022-10-07T07:35:11.062Z,86.24
2022-10-07T07:36:14.061Z,86.27
2022-10-07T07:37:11.061Z,86.12
2022-10-07T07:38:11.063Z,86.02
2022-10-07T07:39:11.060Z,86.05
2022-10-07T07:40:11.062Z,86.48
2022-10-07T07:41:11.059Z,86.43
2022-10-07T07:42:11.062Z,86.50
2022-10-07T07:43:11.064Z,86.69
2022-10-07T07:44:12.072Z,86.55
2022-10-07T07:45:11.068Z,86.45
2022-10-07T07:46:11.132Z,86.26
2022-10-07T07:47:11.063Z,86.29
2022-10-07T07:48:11.067Z,86.15
2022-10-07T07:49:11.062Z,85.92
2022-10-07T07:50:11.064Z,86.33
2022-10-07T07:51:11.069Z,86.02
2022-10-07T07:52:11.064Z,85.80
2022-10-07T07:53:11.063Z,85.86
2022-10-07T07:54:11.065Z,85.84
2022-10-07T07:55:11.067Z,85.63
2022-10-07T07:56:11.061Z,85.41
2022-10-07T07:57:11.064Z,85.45
2022-10-07T07:58:12.168Z,85.48
2022-10-07T07:59:11.059Z,85.31
2022-10-07T08:00:11.062Z,85.17
2022-10-07T08:01:13.111Z,85.35
2022-10-07T08:02:11.133Z,85.32
2022-10-07T08:03:11.066Z,85.24
2022-10-07T08:04:11.070Z,85.17
2022-10-07T08:05:11.065Z,85.14
2022-10-07T08:06:11.066Z,85.04
2022-10-07T08:07:11.066Z,84.96
2022-10-07T08:08:11.063Z,84.91
2022-10-07T08:09:11.062Z,84.96
2022-10-07T08:10:11.062Z,84.82
2022-10-07T08:11:17.065Z,84.72
2022-10-07T08:12:11.062Z,84.64
2022-10-07T08:13:11.067Z,84.29
2022-10-07T08:14:11.066Z,84.28
2022-10-07T08:15:11.065Z,84.05
2022-10-07T08:16:18.068Z,84.03
2022-10-07T08:17:11.063Z,83.92
2022-10-07T08:18:12.067Z,83.84
2022-10-07T08:19:11.063Z,83.82
2022-10-07T08:20:11.070Z,83.70
2022-10-07T08:21:11.060Z,83.48
2022-10-07T08:22:11.061Z,83.29
2022-10-07T08:23:11.058Z,83.20
2022-10-07T08:24:11.058Z,83.30
2022-10-07T08:25:11.062Z,83.20
2022-10-07T08:26:11.055Z,83.02
2022-10-07T08:27:11.065Z,82.97
2022-10-07T08:28:11.093Z,82.90
2022-10-07T08:29:11.070Z,82.84
2022-10-07T08:30:11.062Z,82.74
2022-10-07T08:31:12.117Z,82.62
2022-10-07T08:32:11.055Z,82.86
2022-10-07T08:33:11.063Z,82.62
2022-10-07T08:34:11.071Z,82.69
2022-10-07T08:35:11.060Z,82.73
2022-10-07T08:36:12.059Z,82.54
2022-10-07T08:37:11.062Z,82.40
2022-10-07T08:38:14.410Z,82.48
2022-10-07T08:39:11.059Z,82.45
2022-10-07T08:40:15.062Z,82.18
2022-10-07T08:41:19.060Z,82.11
2022-10-07T08:42:19.061Z,81.86
2022-10-07T08:43:11.060Z,81.94
2022-10-07T08:44:19.068Z,81.70
2022-10-07T08:45:20.079Z,81.61
2022-10-07T08:46:14.144Z,81.76
2022-10-07T08:47:19.069Z,81.53
2022-10-07T08:48:16.062Z,81.34
2022-10-07T08:49:15.061Z,81.07
2022-10-07T08:50:19.881Z,80.99
2022-10-07T08:51:19.064Z,80.73
2022-10-07T08:52:19.069Z,80.68
2022-10-07T08:53:19.064Z,80.86
2022-10-07T08:54:14.060Z,80.66
2022-10-07T08:55:19.062Z,80.82
2022-10-07T08:56:15.070Z,80.80
2022-10-07T08:57:17.063Z,80.80
2022-10-07T08:58:19.062Z,80.88
2022-10-07T08:59:19.063Z,80.89
2022-10-07T09:00:13.062Z,81.16
2022-10-07T09:01:19.153Z,80.84
2022-10-07T09:02:19.108Z,80.80
2022-10-07T09:03:24.140Z,80.63
2022-10-07T09:04:21.842Z,80.84
2022-10-07T09:05:19.072Z,80.73
2022-10-07T09:06:13.067Z,80.67
2022-10-07T09:07:21.083Z,80.63
2022-10-07T09:08:18.064Z,80.57
2022-10-07T09:09:20.065Z,80.51
2022-10-07T09:10:19.071Z,80.39
2022-10-07T09:11:18.065Z,80.34
2022-10-07T09:12:20.065Z,80.19
2022-10-07T09:13:19.066Z,79.89
2022-10-07T09:14:19.068Z,79.79
2022-10-07T09:15:19.065Z,79.61
2022-10-07T09:16:17.102Z,79.77
2022-10-07T09:17:14.065Z,79.47
2022-10-07T09:18:19.067Z,79.19
2022-10-07T09:19:17.077Z,78.98
2022-10-07T09:20:21.155Z,78.65
2022-10-07T09:21:17.056Z,78.44
2022-10-07T09:22:18.089Z,77.91
2022-10-07T09:23:15.057Z,77.95
2022-10-07T09:24:18.059Z,77.33
2022-10-07T09:25:20.055Z,76.98
2022-10-07T09:26:12.059Z,76.58
2022-10-07T09:27:14.058Z,76.08
2022-10-07T09:28:17.117Z,75.66
2022-10-07T09:29:11.062Z,75.17
2022-10-07T09:30:14.060Z,74.87
2022-10-07T09:31:13.118Z,74.74
2022-10-07T09:32:16.060Z,74.42
2022-10-07T09:33:16.057Z,73.96
2022-10-07T09:34:19.058Z,73.85
2022-10-07T09:35:14.067Z,73.79
2022-10-07T09:36:15.057Z,73.64
2022-10-07T09:37:21.132Z,73.14
2022-10-07T09:38:13.059Z,73.14
2022-10-07T09:39:21.079Z,73.08
2022-10-07T09:40:19.058Z,73.02
2022-10-07T09:41:20.057Z,72.89
2022-10-07T09:42:15.061Z,72.87
2022-10-07T09:43:13.067Z,72.90
2022-10-07T09:44:21.078Z,72.58
2022-10-07T09:45:19.060Z,72.50
2022-10-07T09:46:19.113Z,72.66
2022-10-07T09:47:19.068Z,72.67
2022-10-07T09:48:18.064Z,72.46
2022-10-07T09:49:24.200Z,72.33
2022-10-07T09:50:21.348Z,72.19
2022-10-07T09:51:17.065Z,72.29
2022-10-07T09:52:18.061Z,72.33
2022-10-07T09:53:19.073Z,72.14
2022-10-07T09:54:18.072Z,72.12
2022-10-07T09:55:19.061Z,71.90
2022-10-07T09:56:19.063Z,71.79
2022-10-07T09:57:19.078Z,71.50
2022-10-07T09:58:21.100Z,71.80
2022-10-07T09:59:19.067Z,71.88
2022-10-07T10:00:19.162Z,71.88
2022-10-07T10:01:12.065Z,71.70
2022-10-07T10:02:19.127Z,71.61
2022-10-07T10:03:11.091Z,71.72
2022-10-07T10:04:18.059Z,71.86
2022-10-07T10:05:19.062Z,71.82
2022-10-07T10:06:11.072Z,71.77
2022-10-07T10:07:19.081Z,71.79
2022-10-07T10:08:19.060Z,71.71
2022-10-07T10:09:13.349Z,71.77
2022-10-07T10:10:17.077Z,72.00
2022-10-07T10:11:19.064Z,71.65
2022-10-07T10:12:14.072Z,71.38
2022-10-07T10:13:19.071Z,71.44
2022-10-07T10:14:19.066Z,71.48
2022-10-07T10:15:19.068Z,71.36
2022-10-07T10:16:19.144Z,71.47
2022-10-07T10:17:19.065Z,71.36
2022-10-07T10:18:19.118Z,71.41
2022-10-07T10:19:22.104Z,71.42
2022-10-07T10:20:19.144Z,71.14
2022-10-07T10:21:19.057Z,71.37
2022-10-07T10:22:19.057Z,71.45
2022-10-07T10:23:19.064Z,71.39
2022-10-07T10:24:15.058Z,71.39
2022-10-07T10:25:15.056Z,71.34
2022-10-07T10:26:30.784Z,71.47
2022-10-07T10:27:23.869Z,71.26
2022-10-07T10:28:21.119Z,71.34
2022-10-07T10:29:21.070Z,71.33
2022-10-07T10:30:17.058Z,71.15
2022-10-07T10:31:18.080Z,71.11
2022-10-07T10:32:22.062Z,71.09
2022-10-07T10:33:18.077Z,71.04
2022-10-07T10:34:19.070Z,70.78
2022-10-07T10:35:19.061Z,70.78
2022-10-07T10:36:18.059Z,70.90
2022-10-07T10:37:16.057Z,70.78
2022-10-07T10:38:21.064Z,70.47
2022-10-07T10:39:19.076Z,70.21
2022-10-07T10:40:19.348Z,70.01
2022-10-07T10:41:19.912Z,69.38
2022-10-07T10:42:14.062Z,69.17
2022-10-07T10:43:21.095Z,68.74
2022-10-07T10:44:21.064Z,68.73
2022-10-07T10:45:21.062Z,68.49
2022-10-07T10:46:22.102Z,68.30
2022-10-07T10:47:19.057Z,68.14
2022-10-07T10:48:22.063Z,68.20
2022-10-07T10:49:22.064Z,68.09
2022-10-07T10:50:22.071Z,67.92
2022-10-07T10:51:19.062Z,67.74
2022-10-07T10:52:22.071Z,67.68
2022-10-07T10:53:19.060Z,67.54
2022-10-07T10:54:19.065Z,67.41
2022-10-07T10:55:19.069Z,67.26
2022-10-07T10:56:22.064Z,67.22
2022-10-07T10:57:19.061Z,67.17
2022-10-07T10:58:19.058Z,67.24
2022-10-07T10:59:21.063Z,67.41
2022-10-07T11:00:15.067Z,66.95
2022-10-07T11:01:19.063Z,67.21
2022-10-07T11:02:19.368Z,67.34
2022-10-07T11:03:19.104Z,67.32
2022-10-07T11:04:22.066Z,67.27
2022-10-07T11:05:19.076Z,67.30
2022-10-07T11:06:16.485Z,67.21
2022-10-07T11:07:19.060Z,67.12
2022-10-07T11:08:19.065Z,67.16
2022-10-07T11:09:17.072Z,67.12
2022-10-07T11:10:22.065Z,67.05
2022-10-07T11:11:18.064Z,67.06
2022-10-07T11:12:19.075Z,67.17
2022-10-07T11:13:23.069Z,67.13
2022-10-07T11:14:18.073Z,67.03
2022-10-07T11:15:19.067Z,67.16
2022-10-07T11:16:14.158Z,67.28
2022-10-07T11:17:12.066Z,67.11
2022-10-07T11:18:15.074Z,67.32
2022-10-07T11:19:19.066Z,66.95
2022-10-07T11:20:20.072Z,67.50
2022-10-07T11:21:14.066Z,67.46
2022-10-07T11:22:17.065Z,67.50
2022-10-07T11:23:19.057Z,67.44
2022-10-07T11:24:21.058Z,67.57
2022-10-07T11:25:21.054Z,67.59
2022-10-07T11:26:20.059Z,67.95
2022-10-07T11:27:19.073Z,67.46
2022-10-07T11:28:20.121Z,67.92
2022-10-07T11:29:19.060Z,67.80
2022-10-07T11:30:17.131Z,67.78
2022-10-07T11:31:20.147Z,67.83
2022-10-07T11:32:17.066Z,67.76
2022-10-07T11:33:17.061Z,68.01
2022-10-07T11:34:16.058Z,68.14
2022-10-07T11:35:22.061Z,68.22
2022-10-07T11:36:18.059Z,68.42
2022-10-07T11:37:19.068Z,68.24
2022-10-07T11:38:20.066Z,68.36
2022-10-07T11:39:11.061Z,68.31
2022-10-07T11:40:11.056Z,68.42
2022-10-07T11:41:19.070Z,68.49
2022-10-07T11:42:17.061Z,68.50
2022-10-07T11:43:18.059Z,68.33
2022-10-07T11:44:19.064Z,68.21
2022-10-07T11:45:15.089Z,68.22
2022-10-07T11:46:15.116Z,68.14
2022-10-07T11:47:12.071Z,68.16
2022-10-07T11:48:17.057Z,68.14
2022-10-07T11:49:21.061Z,68.13
2022-10-07T11:50:19.077Z,68.35
2022-10-07T11:51:15.066Z,68.43
2022-10-07T11:52:19.060Z,68.23
2022-10-07T11:53:16.058Z,68.01
2022-10-07T11:54:16.064Z,68.03
2022-10-07T11:55:16.062Z,67.74
2022-10-07T11:56:16.062Z,67.21
2022-10-07T11:57:19.064Z,66.57
2022-10-07T11:58:19.066Z,66.38
2022-10-07T11:59:15.071Z,66.33
2022-10-07T12:00:20.061Z,66.27
2022-10-07T12:01:19.060Z,65.93
2022-10-07T12:02:19.114Z,66.28
2022-10-07T12:03:22.121Z,66.13
2022-10-07T12:04:19.064Z,65.96
2022-10-07T12:05:19.063Z,65.71
2022-10-07T12:06:13.060Z,65.84
2022-10-07T12:07:19.071Z,65.67
2022-10-07T12:08:19.064Z,65.66
2022-10-07T12:09:19.063Z,65.70
2022-10-07T12:10:19.061Z,65.26
2022-10-07T12:11:25.064Z,65.14
2022-10-07T12:12:14.066Z,65.24
2022-10-07T12:13:19.066Z,64.98
2022-10-07T12:14:19.064Z,65.11
2022-10-07T12:15:19.068Z,65.07
2022-10-07T12:16:19.157Z,65.17
2022-10-07T12:17:19.068Z,65.04
2022-10-07T12:18:19.069Z,65.50
2022-10-07T12:19:18.851Z,66.46
2022-10-07T12:20:21.393Z,66.80
2022-10-07T12:21:11.057Z,67.42
2022-10-07T12:22:16.059Z,67.73
2022-10-07T12:23:22.058Z,67.96
2022-10-07T12:24:16.059Z,68.17
2022-10-07T12:25:22.057Z,68.27
2022-10-07T12:26:19.065Z,68.52
2022-10-07T12:27:15.060Z,68.59
2022-10-07T12:28:18.116Z,68.46
2022-10-07T12:29:19.061Z,68.40
2022-10-07T12:30:19.061Z,68.31
2022-10-07T12:31:22.102Z,68.36
2022-10-07T12:32:19.061Z,68.24
2022-10-07T12:33:15.058Z,68.35
2022-10-07T12:34:17.061Z,68.33
2022-10-07T12:35:19.067Z,68.89
2022-10-07T12:36:19.063Z,69.19
2022-10-07T12:37:22.058Z,69.99
2022-10-07T12:38:21.059Z,70.60
2022-10-07T12:39:19.065Z,70.69
2022-10-07T12:40:19.059Z,71.12
2022-10-07T12:41:23.072Z,71.30
2022-10-07T12:42:13.063Z,71.68
2022-10-07T12:43:25.060Z,71.94
2022-10-07T12:44:17.060Z,72.34
2022-10-07T12:45:11.062Z,72.30
2022-10-07T12:46:13.141Z,72.42
2022-10-07T12:47:19.063Z,72.69
2022-10-07T12:48:18.078Z,72.63
2022-10-07T12:49:19.069Z,72.94
2022-10-07T12:50:14.128Z,72.63
2022-10-07T12:51:17.061Z,72.57
2022-10-07T12:52:19.065Z,72.79
2022-10-07T12:53:12.063Z,72.90